sensor_id;sensor_type;location;lat;lon;timestamp;temperature;humidity
18898;DHT22;9581;49.484;8.556;2023-04-24T00:00:35;13.40;99.90
18898;DHT22;9581;49.484;8.556;2023-04-24T00:03:03;13.40;99.90
18898;DHT22;9581;49.484;8.556;2023-04-24T00:05:31;13.40;99.90
18898;DHT22;9581;49.484;8.556;2023-04-24T00:07:59;13.40;99.90
18898;DHT22;9581;49.484;8.556;2023-04-24T00:10:26;13.20;99.90
18898;DHT22;9581;49.484;8.556;2023-04-24T00:12:53;13.20;99.90
18898;DHT22;9581;49.484;8.556;2023-04-24T00:15:19;12.90;99.90
18898;DHT22;9581;49.484;8.556;2023-04-24T00:17:46;12.90;99.90
18898;DHT22;9581;49.484;8.556;2023-04-24T00:20:13;12.60;99.90
18898;DHT22;9581;49.484;8.556;2023-04-24T00:22:40;13.10;99.90
18898;DHT22;9581;49.484;8.556;2023-04-24T00:25:08;13.30;99.90
18898;DHT22;9581;49.484;8.556;2023-04-24T00:27:35;13.40;99.90
18898;DHT22;9581;49.484;8.556;2023-04-24T00:30:03;13.40;99.90
18898;DHT22;9581;49.484;8.556;2023-04-24T00:32:30;13.50;99.90
18898;DHT22;9581;49.484;8.556;2023-04-24T00:34:57;13.40;99.90
18898;DHT22;9581;49.484;8.556;2023-04-24T00:37:24;13.40;99.90
18898;DHT22;9581;49.484;8.556;2023-04-24T00:39:50;13.40;99.90
18898;DHT22;9581;49.484;8.556;2023-04-24T00:42:18;13.20;99.90
18898;DHT22;9581;49.484;8.556;2023-04-24T00:44:45;13.10;99.90
18898;DHT22;9581;49.484;8.556;2023-04-24T00:47:13;13.40;99.90
18898;DHT22;9581;49.484;8.556;2023-04-24T00:49:40;13.20;99.90
18898;DHT22;9581;49.484;8.556;2023-04-24T00:52:07;13.40;99.90
18898;DHT22;9581;49.484;8.556;2023-04-24T00:54:34;13.00;99.90
18898;DHT22;9581;49.484;8.556;2023-04-24T00:57:01;13.20;99.90
18898;DHT22;9581;49.484;8.556;2023-04-24T00:59:30;13.10;99.90
18898;DHT22;9581;49.484;8.556;2023-04-24T01:01:58;13.30;99.90
18898;DHT22;9581;49.484;8.556;2023-04-24T01:04:25;13.30;99.90
18898;DHT22;9581;49.484;8.556;2023-04-24T01:06:53;13.20;99.90
18898;DHT22;9581;49.484;8.556;2023-04-24T01:09:21;13.30;99.90
18898;DHT22;9581;49.484;8.556;2023-04-24T01:11:49;13.30;99.90
18898;DHT22;9581;49.484;8.556;2023-04-24T01:14:16;13.20;99.90
18898;DHT22;9581;49.484;8.556;2023-04-24T01:16:44;13.30;99.90
18898;DHT22;9581;49.484;8.556;2023-04-24T01:19:11;13.20;99.90
18898;DHT22;9581;49.484;8.556;2023-04-24T01:21:38;13.20;99.90
18898;DHT22;9581;49.484;8.556;2023-04-24T01:24:07;13.10;99.90
18898;DHT22;9581;49.484;8.556;2023-04-24T01:26:34;13.10;99.90
18898;DHT22;9581;49.484;8.556;2023-04-24T01:29:01;13.00;99.90
18898;DHT22;9581;49.484;8.556;2023-04-24T01:31:28;13.10;99.90
18898;DHT22;9581;49.484;8.556;2023-04-24T01:33:56;13.10;99.90
18898;DHT22;9581;49.484;8.556;2023-04-24T01:36:24;13.00;99.90
18898;DHT22;9581;49.484;8.556;2023-04-24T01:38:52;13.10;99.90
18898;DHT22;9581;49.484;8.556;2023-04-24T01:41:21;13.10;99.90
18898;DHT22;9581;49.484;8.556;2023-04-24T01:43:48;13.10;99.90
18898;DHT22;9581;49.484;8.556;2023-04-24T01:46:15;13.10;99.90
18898;DHT22;9581;49.484;8.556;2023-04-24T01:48:42;13.10;99.90
18898;DHT22;9581;49.484;8.556;2023-04-24T01:51:09;13.10;99.90
18898;DHT22;9581;49.484;8.556;2023-04-24T01:53:35;13.10;99.90
18898;DHT22;9581;49.484;8.556;2023-04-24T01:56:02;13.10;99.90
18898;DHT22;9581;49.484;8.556;2023-04-24T01:58:31;13.00;99.90
18898;DHT22;9581;49.484;8.556;2023-04-24T02:00:58;13.00;99.90
18898;DHT22;9581;49.484;8.556;2023-04-24T02:03:25;13.10;99.90
18898;DHT22;9581;49.484;8.556;2023-04-24T02:05:52;13.10;99.90
18898;DHT22;9581;49.484;8.556;2023-04-24T02:08:19;13.00;99.90
18898;DHT22;9581;49.484;8.556;2023-04-24T02:10:46;13.00;99.90
18898;DHT22;9581;49.484;8.556;2023-04-24T02:13:13;12.90;99.90
18898;DHT22;9581;49.484;8.556;2023-04-24T02:15:41;12.90;99.90
18898;DHT22;9581;49.484;8.556;2023-04-24T02:18:07;13.00;99.90
18898;DHT22;9581;49.484;8.556;2023-04-24T02:20:34;13.00;99.90
18898;DHT22;9581;49.484;8.556;2023-04-24T02:23:01;13.00;99.90
18898;DHT22;9581;49.484;8.556;2023-04-24T02:25:28;13.00;99.90
18898;DHT22;9581;49.484;8.556;2023-04-24T02:27:55;13.00;99.90
18898;DHT22;9581;49.484;8.556;2023-04-24T02:30:21;13.00;99.90
18898;DHT22;9581;49.484;8.556;2023-04-24T02:32:49;13.00;99.90
18898;DHT22;9581;49.484;8.556;2023-04-24T02:35:17;13.00;99.90
18898;DHT22;9581;49.484;8.556;2023-04-24T02:37:43;12.90;99.90
18898;DHT22;9581;49.484;8.556;2023-04-24T02:40:11;12.90;99.90
18898;DHT22;9581;49.484;8.556;2023-04-24T02:42:37;13.00;99.90
18898;DHT22;9581;49.484;8.556;2023-04-24T02:45:05;13.00;99.90
18898;DHT22;9581;49.484;8.556;2023-04-24T02:47:32;13.00;99.90
18898;DHT22;9581;49.484;8.556;2023-04-24T02:50:00;13.00;99.90
18898;DHT22;9581;49.484;8.556;2023-04-24T02:52:27;12.60;99.90
18898;DHT22;9581;49.484;8.556;2023-04-24T02:54:53;12.10;99.90
18898;DHT22;9581;49.484;8.556;2023-04-24T02:57:20;12.50;99.90
18898;DHT22;9581;49.484;8.556;2023-04-24T02:59:47;12.10;99.90
18898;DHT22;9581;49.484;8.556;2023-04-24T03:02:14;11.80;99.90
18898;DHT22;9581;49.484;8.556;2023-04-24T03:04:40;11.80;99.90
18898;DHT22;9581;49.484;8.556;2023-04-24T03:07:09;11.60;99.90
18898;DHT22;9581;49.484;8.556;2023-04-24T03:09:36;11.40;99.90
18898;DHT22;9581;49.484;8.556;2023-04-24T03:12:03;11.50;99.90
18898;DHT22;9581;49.484;8.556;2023-04-24T03:14:29;11.50;99.90
18898;DHT22;9581;49.484;8.556;2023-04-24T03:16:57;11.50;99.90
18898;DHT22;9581;49.484;8.556;2023-04-24T03:19:24;11.70;99.90
18898;DHT22;9581;49.484;8.556;2023-04-24T03:21:50;11.80;99.90
18898;DHT22;9581;49.484;8.556;2023-04-24T03:24:19;11.70;99.90
18898;DHT22;9581;49.484;8.556;2023-04-24T03:26:46;11.80;99.90
18898;DHT22;9581;49.484;8.556;2023-04-24T03:29:12;11.70;99.90
18898;DHT22;9581;49.484;8.556;2023-04-24T03:31:39;11.80;99.90
18898;DHT22;9581;49.484;8.556;2023-04-24T03:34:06;11.50;99.90
18898;DHT22;9581;49.484;8.556;2023-04-24T03:36:33;11.50;99.90
18898;DHT22;9581;49.484;8.556;2023-04-24T03:39:00;11.40;99.90
18898;DHT22;9581;49.484;8.556;2023-04-24T03:41:28;11.40;99.90
18898;DHT22;9581;49.484;8.556;2023-04-24T03:43:55;11.60;99.90
18898;DHT22;9581;49.484;8.556;2023-04-24T03:46:22;11.60;99.90
18898;DHT22;9581;49.484;8.556;2023-04-24T03:48:49;11.70;99.90
18898;DHT22;9581;49.484;8.556;2023-04-24T03:51:16;11.30;99.90
18898;DHT22;9581;49.484;8.556;2023-04-24T03:53:43;11.40;99.90
18898;DHT22;9581;49.484;8.556;2023-04-24T03:56:09;11.30;99.90
18898;DHT22;9581;49.484;8.556;2023-04-24T03:58:38;11.60;99.90
18898;DHT22;9581;49.484;8.556;2023-04-24T04:01:04;11.20;99.90
18898;DHT22;9581;49.484;8.556;2023-04-24T04:03:31;11.40;99.90
18898;DHT22;9581;49.484;8.556;2023-04-24T04:05:59;11.60;99.90
18898;DHT22;9581;49.484;8.556;2023-04-24T04:08:26;11.50;99.90
18898;DHT22;9581;49.484;8.556;2023-04-24T04:10:52;11.40;99.90
18898;DHT22;9581;49.484;8.556;2023-04-24T04:13:19;11.20;99.90
18898;DHT22;9581;49.484;8.556;2023-04-24T04:15:47;11.20;99.90
18898;DHT22;9581;49.484;8.556;2023-04-24T04:18:14;11.40;99.90
18898;DHT22;9581;49.484;8.556;2023-04-24T04:20:41;11.30;99.90
18898;DHT22;9581;49.484;8.556;2023-04-24T04:23:07;11.30;99.90
18898;DHT22;9581;49.484;8.556;2023-04-24T04:25:35;11.40;99.90
18898;DHT22;9581;49.484;8.556;2023-04-24T04:28:02;11.30;99.90
18898;DHT22;9581;49.484;8.556;2023-04-24T04:30:28;11.40;99.90
18898;DHT22;9581;49.484;8.556;2023-04-24T04:32:59;11.80;99.90
18898;DHT22;9581;49.484;8.556;2023-04-24T04:35:25;11.60;99.90
18898;DHT22;9581;49.484;8.556;2023-04-24T04:37:52;11.80;99.90
18898;DHT22;9581;49.484;8.556;2023-04-24T04:40:19;11.40;99.90
18898;DHT22;9581;49.484;8.556;2023-04-24T04:42:46;11.10;99.90
18898;DHT22;9581;49.484;8.556;2023-04-24T04:45:13;11.30;99.90
18898;DHT22;9581;49.484;8.556;2023-04-24T04:47:42;11.20;99.90
18898;DHT22;9581;49.484;8.556;2023-04-24T04:50:11;11.70;99.90
18898;DHT22;9581;49.484;8.556;2023-04-24T04:52:38;11.70;99.90
18898;DHT22;9581;49.484;8.556;2023-04-24T04:55:05;11.80;99.90
18898;DHT22;9581;49.484;8.556;2023-04-24T04:57:33;11.80;99.90
18898;DHT22;9581;49.484;8.556;2023-04-24T05:00:00;11.90;99.90
18898;DHT22;9581;49.484;8.556;2023-04-24T05:02:27;11.90;99.90
18898;DHT22;9581;49.484;8.556;2023-04-24T05:04:53;11.90;99.90
18898;DHT22;9581;49.484;8.556;2023-04-24T05:07:21;11.80;99.90
18898;DHT22;9581;49.484;8.556;2023-04-24T05:09:48;11.70;99.90
18898;DHT22;9581;49.484;8.556;2023-04-24T05:12:16;11.90;99.90
18898;DHT22;9581;49.484;8.556;2023-04-24T05:14:43;11.70;99.90
18898;DHT22;9581;49.484;8.556;2023-04-24T05:17:10;11.60;99.90
18898;DHT22;9581;49.484;8.556;2023-04-24T05:19:37;11.10;99.90
18898;DHT22;9581;49.484;8.556;2023-04-24T05:22:04;11.20;99.90
18898;DHT22;9581;49.484;8.556;2023-04-24T05:24:33;11.40;99.90
18898;DHT22;9581;49.484;8.556;2023-04-24T05:27:00;11.70;99.90
18898;DHT22;9581;49.484;8.556;2023-04-24T05:29:27;11.80;99.90
18898;DHT22;9581;49.484;8.556;2023-04-24T05:31:56;11.90;99.90
18898;DHT22;9581;49.484;8.556;2023-04-24T05:34:23;11.60;99.90
18898;DHT22;9581;49.484;8.556;2023-04-24T05:36:50;11.60;99.90
18898;DHT22;9581;49.484;8.556;2023-04-24T05:39:17;11.40;99.90
18898;DHT22;9581;49.484;8.556;2023-04-24T05:41:46;11.30;99.90
18898;DHT22;9581;49.484;8.556;2023-04-24T05:44:13;11.50;99.90
18898;DHT22;9581;49.484;8.556;2023-04-24T05:46:40;11.20;99.90
18898;DHT22;9581;49.484;8.556;2023-04-24T05:49:06;11.40;99.90
18898;DHT22;9581;49.484;8.556;2023-04-24T05:51:33;11.30;99.90
18898;DHT22;9581;49.484;8.556;2023-04-24T05:54:00;11.30;99.90
18898;DHT22;9581;49.484;8.556;2023-04-24T05:56:28;11.40;99.90
18898;DHT22;9581;49.484;8.556;2023-04-24T05:58:57;11.30;99.90
18898;DHT22;9581;49.484;8.556;2023-04-24T06:01:24;11.70;99.90
18898;DHT22;9581;49.484;8.556;2023-04-24T06:03:51;11.60;99.90
18898;DHT22;9581;49.484;8.556;2023-04-24T06:06:18;11.40;99.90
18898;DHT22;9581;49.484;8.556;2023-04-24T06:08:45;11.50;99.90
18898;DHT22;9581;49.484;8.556;2023-04-24T06:11:12;11.60;99.90
18898;DHT22;9581;49.484;8.556;2023-04-24T06:13:39;11.60;99.90
18898;DHT22;9581;49.484;8.556;2023-04-24T06:16:08;11.70;99.90
18898;DHT22;9581;49.484;8.556;2023-04-24T06:18:35;11.70;99.90
18898;DHT22;9581;49.484;8.556;2023-04-24T06:21:03;12.10;99.90
18898;DHT22;9581;49.484;8.556;2023-04-24T06:23:30;12.10;99.90
18898;DHT22;9581;49.484;8.556;2023-04-24T06:25:58;11.80;99.90
18898;DHT22;9581;49.484;8.556;2023-04-24T06:28:25;11.70;99.90
18898;DHT22;9581;49.484;8.556;2023-04-24T06:30:52;12.00;99.90
18898;DHT22;9581;49.484;8.556;2023-04-24T06:33:20;12.10;99.90
18898;DHT22;9581;49.484;8.556;2023-04-24T06:35:47;12.00;99.90
18898;DHT22;9581;49.484;8.556;2023-04-24T06:38:13;11.80;99.90
18898;DHT22;9581;49.484;8.556;2023-04-24T06:40:41;11.20;99.90
18898;DHT22;9581;49.484;8.556;2023-04-24T06:43:08;11.40;99.90
18898;DHT22;9581;49.484;8.556;2023-04-24T06:45:35;11.30;99.90
18898;DHT22;9581;49.484;8.556;2023-04-24T06:48:02;11.20;99.90
18898;DHT22;9581;49.484;8.556;2023-04-24T06:50:30;11.20;99.90
18898;DHT22;9581;49.484;8.556;2023-04-24T06:52:57;11.00;99.90
18898;DHT22;9581;49.484;8.556;2023-04-24T06:55:24;10.90;99.90
18898;DHT22;9581;49.484;8.556;2023-04-24T06:57:50;11.00;99.90
18898;DHT22;9581;49.484;8.556;2023-04-24T07:00:18;11.10;99.90
18898;DHT22;9581;49.484;8.556;2023-04-24T07:02:45;11.10;99.90
18898;DHT22;9581;49.484;8.556;2023-04-24T07:05:12;10.80;99.90
18898;DHT22;9581;49.484;8.556;2023-04-24T07:07:42;10.70;99.90
18898;DHT22;9581;49.484;8.556;2023-04-24T07:10:09;10.80;99.90
18898;DHT22;9581;49.484;8.556;2023-04-24T07:12:36;11.00;99.90
18898;DHT22;9581;49.484;8.556;2023-04-24T07:15:04;11.10;99.90
18898;DHT22;9581;49.484;8.556;2023-04-24T07:17:31;10.80;99.90
18898;DHT22;9581;49.484;8.556;2023-04-24T07:19:58;11.10;99.90
18898;DHT22;9581;49.484;8.556;2023-04-24T07:22:25;11.00;99.90
18898;DHT22;9581;49.484;8.556;2023-04-24T07:24:53;11.00;99.90
18898;DHT22;9581;49.484;8.556;2023-04-24T07:27:20;11.60;99.90
18898;DHT22;9581;49.484;8.556;2023-04-24T07:29:47;11.80;99.90
18898;DHT22;9581;49.484;8.556;2023-04-24T07:32:14;11.60;99.90
18898;DHT22;9581;49.484;8.556;2023-04-24T07:34:41;12.00;99.90
18898;DHT22;9581;49.484;8.556;2023-04-24T07:37:07;11.60;99.90
18898;DHT22;9581;49.484;8.556;2023-04-24T07:39:34;11.70;99.90
18898;DHT22;9581;49.484;8.556;2023-04-24T07:42:03;11.60;99.90
18898;DHT22;9581;49.484;8.556;2023-04-24T07:44:30;11.80;99.90
18898;DHT22;9581;49.484;8.556;2023-04-24T07:46:57;11.40;99.90
18898;DHT22;9581;49.484;8.556;2023-04-24T07:49:24;11.70;99.90
18898;DHT22;9581;49.484;8.556;2023-04-24T07:51:51;11.50;99.90
18898;DHT22;9581;49.484;8.556;2023-04-24T07:54:18;11.70;99.90
18898;DHT22;9581;49.484;8.556;2023-04-24T07:56:45;12.00;99.90
18898;DHT22;9581;49.484;8.556;2023-04-24T07:59:13;12.40;99.90
18898;DHT22;9581;49.484;8.556;2023-04-24T08:01:40;13.30;99.90
18898;DHT22;9581;49.484;8.556;2023-04-24T08:04:07;13.40;99.90
18898;DHT22;9581;49.484;8.556;2023-04-24T08:06:34;13.00;99.90
18898;DHT22;9581;49.484;8.556;2023-04-24T08:09:01;13.70;99.90
18898;DHT22;9581;49.484;8.556;2023-04-24T08:11:28;13.80;99.90
18898;DHT22;9581;49.484;8.556;2023-04-24T08:13:55;13.50;99.90
18898;DHT22;9581;49.484;8.556;2023-04-24T08:16:23;13.90;99.90
18898;DHT22;9581;49.484;8.556;2023-04-24T08:18:50;13.50;99.90
18898;DHT22;9581;49.484;8.556;2023-04-24T08:21:17;13.60;99.90
18898;DHT22;9581;49.484;8.556;2023-04-24T08:23:44;13.50;99.90
18898;DHT22;9581;49.484;8.556;2023-04-24T08:26:11;13.80;99.90
18898;DHT22;9581;49.484;8.556;2023-04-24T08:28:38;14.30;99.90
18898;DHT22;9581;49.484;8.556;2023-04-24T08:31:05;14.30;99.90
18898;DHT22;9581;49.484;8.556;2023-04-24T08:33:33;13.80;99.90
18898;DHT22;9581;49.484;8.556;2023-04-24T08:36:01;13.30;99.90
18898;DHT22;9581;49.484;8.556;2023-04-24T08:38:28;13.70;99.90
18898;DHT22;9581;49.484;8.556;2023-04-24T08:40:57;14.10;99.90
18898;DHT22;9581;49.484;8.556;2023-04-24T08:43:25;14.00;99.90
18898;DHT22;9581;49.484;8.556;2023-04-24T08:45:52;13.90;99.90
18898;DHT22;9581;49.484;8.556;2023-04-24T08:48:20;13.80;99.90
18898;DHT22;9581;49.484;8.556;2023-04-24T08:50:50;14.50;99.90
18898;DHT22;9581;49.484;8.556;2023-04-24T08:53:18;14.60;99.90
18898;DHT22;9581;49.484;8.556;2023-04-24T08:55:47;14.30;99.90
18898;DHT22;9581;49.484;8.556;2023-04-24T08:58:16;14.30;99.90
18898;DHT22;9581;49.484;8.556;2023-04-24T09:00:43;14.30;99.90
18898;DHT22;9581;49.484;8.556;2023-04-24T09:03:13;14.10;99.90
18898;DHT22;9581;49.484;8.556;2023-04-24T09:05:40;13.60;99.90
18898;DHT22;9581;49.484;8.556;2023-04-24T09:08:13;13.60;99.90
18898;DHT22;9581;49.484;8.556;2023-04-24T09:10:40;13.60;99.90
18898;DHT22;9581;49.484;8.556;2023-04-24T09:13:08;13.70;99.90
18898;DHT22;9581;49.484;8.556;2023-04-24T09:15:36;13.70;99.90
18898;DHT22;9581;49.484;8.556;2023-04-24T09:18:03;13.10;99.90
18898;DHT22;9581;49.484;8.556;2023-04-24T09:20:31;13.00;99.90
18898;DHT22;9581;49.484;8.556;2023-04-24T09:22:58;13.00;99.90
18898;DHT22;9581;49.484;8.556;2023-04-24T09:25:31;12.80;99.90
18898;DHT22;9581;49.484;8.556;2023-04-24T09:28:00;12.70;99.90
18898;DHT22;9581;49.484;8.556;2023-04-24T09:30:28;12.90;99.90
18898;DHT22;9581;49.484;8.556;2023-04-24T09:33:10;13.10;99.90
18898;DHT22;9581;49.484;8.556;2023-04-24T09:35:40;13.70;99.90
18898;DHT22;9581;49.484;8.556;2023-04-24T09:38:07;13.80;99.90
18898;DHT22;9581;49.484;8.556;2023-04-24T09:40:35;13.70;99.90
18898;DHT22;9581;49.484;8.556;2023-04-24T09:43:02;14.00;99.90
18898;DHT22;9581;49.484;8.556;2023-04-24T09:45:35;14.00;99.90
18898;DHT22;9581;49.484;8.556;2023-04-24T09:48:02;13.50;99.90
18898;DHT22;9581;49.484;8.556;2023-04-24T09:50:32;13.30;99.90
18898;DHT22;9581;49.484;8.556;2023-04-24T09:53:03;13.10;99.90
18898;DHT22;9581;49.484;8.556;2023-04-24T09:55:30;13.20;99.90
18898;DHT22;9581;49.484;8.556;2023-04-24T09:58:00;12.90;99.90
18898;DHT22;9581;49.484;8.556;2023-04-24T10:00:28;13.30;99.90
18898;DHT22;9581;49.484;8.556;2023-04-24T10:02:56;13.50;99.90
18898;DHT22;9581;49.484;8.556;2023-04-24T10:05:24;13.60;99.90
18898;DHT22;9581;49.484;8.556;2023-04-24T10:07:51;13.40;99.90
18898;DHT22;9581;49.484;8.556;2023-04-24T10:10:18;13.50;99.90
18898;DHT22;9581;49.484;8.556;2023-04-24T10:12:45;13.40;99.90
18898;DHT22;9581;49.484;8.556;2023-04-24T10:15:14;13.70;99.90
18898;DHT22;9581;49.484;8.556;2023-04-24T10:17:44;13.90;99.90
18898;DHT22;9581;49.484;8.556;2023-04-24T10:20:18;13.60;99.90
18898;DHT22;9581;49.484;8.556;2023-04-24T10:22:47;13.70;99.90
18898;DHT22;9581;49.484;8.556;2023-04-24T10:25:16;13.00;99.90
18898;DHT22;9581;49.484;8.556;2023-04-24T10:27:43;13.20;99.90
18898;DHT22;9581;49.484;8.556;2023-04-24T10:30:13;13.00;99.90
18898;DHT22;9581;49.484;8.556;2023-04-24T10:32:40;13.40;99.90
18898;DHT22;9581;49.484;8.556;2023-04-24T10:35:08;13.50;99.90
18898;DHT22;9581;49.484;8.556;2023-04-24T10:37:37;13.40;99.90
18898;DHT22;9581;49.484;8.556;2023-04-24T10:40:06;14.50;99.90
18898;DHT22;9581;49.484;8.556;2023-04-24T10:42:34;14.20;99.90
18898;DHT22;9581;49.484;8.556;2023-04-24T10:45:05;13.70;99.90
18898;DHT22;9581;49.484;8.556;2023-04-24T10:47:40;14.00;99.90
18898;DHT22;9581;49.484;8.556;2023-04-24T10:50:09;13.30;99.90
18898;DHT22;9581;49.484;8.556;2023-04-24T10:52:45;13.50;99.90
18898;DHT22;9581;49.484;8.556;2023-04-24T10:55:13;13.70;99.90
18898;DHT22;9581;49.484;8.556;2023-04-24T10:58:02;13.90;99.90
18898;DHT22;9581;49.484;8.556;2023-04-24T11:00:30;14.00;99.90
18898;DHT22;9581;49.484;8.556;2023-04-24T11:02:57;14.40;99.90
18898;DHT22;9581;49.484;8.556;2023-04-24T11:05:51;14.20;99.90
18898;DHT22;9581;49.484;8.556;2023-04-24T11:08:29;14.80;99.90
18898;DHT22;9581;49.484;8.556;2023-04-24T11:10:59;14.80;99.90
18898;DHT22;9581;49.484;8.556;2023-04-24T11:16:20;14.10;99.90
18898;DHT22;9581;49.484;8.556;2023-04-24T11:18:51;14.20;99.90
18898;DHT22;9581;49.484;8.556;2023-04-24T11:21:20;14.10;99.90
18898;DHT22;9581;49.484;8.556;2023-04-24T11:23:47;14.10;99.90
18898;DHT22;9581;49.484;8.556;2023-04-24T11:26:18;14.10;99.90
18898;DHT22;9581;49.484;8.556;2023-04-24T11:28:47;14.10;99.90
18898;DHT22;9581;49.484;8.556;2023-04-24T11:31:37;14.00;99.90
18898;DHT22;9581;49.484;8.556;2023-04-24T11:34:08;13.90;99.90
18898;DHT22;9581;49.484;8.556;2023-04-24T11:36:35;13.90;99.90
18898;DHT22;9581;49.484;8.556;2023-04-24T11:39:02;14.10;99.90
18898;DHT22;9581;49.484;8.556;2023-04-24T11:41:29;14.30;99.90
18898;DHT22;9581;49.484;8.556;2023-04-24T11:43:58;14.90;99.90
18898;DHT22;9581;49.484;8.556;2023-04-24T11:46:28;15.40;99.90
18898;DHT22;9581;49.484;8.556;2023-04-24T11:48:55;16.10;99.90
18898;DHT22;9581;49.484;8.556;2023-04-24T11:51:22;15.60;99.90
18898;DHT22;9581;49.484;8.556;2023-04-24T11:53:49;15.40;99.90
18898;DHT22;9581;49.484;8.556;2023-04-24T11:56:17;14.70;99.90
18898;DHT22;9581;49.484;8.556;2023-04-24T11:58:45;14.10;99.90
18898;DHT22;9581;49.484;8.556;2023-04-24T12:01:14;14.20;99.90
18898;DHT22;9581;49.484;8.556;2023-04-24T12:03:41;14.20;99.90
18898;DHT22;9581;49.484;8.556;2023-04-24T12:06:11;13.70;99.90
18898;DHT22;9581;49.484;8.556;2023-04-24T12:08:37;13.60;99.90
18898;DHT22;9581;49.484;8.556;2023-04-24T12:11:06;13.50;99.90
18898;DHT22;9581;49.484;8.556;2023-04-24T12:13:33;13.80;99.90
18898;DHT22;9581;49.484;8.556;2023-04-24T12:16:02;14.60;99.90
18898;DHT22;9581;49.484;8.556;2023-04-24T12:18:31;14.30;99.90
18898;DHT22;9581;49.484;8.556;2023-04-24T12:21:16;14.90;99.90
18898;DHT22;9581;49.484;8.556;2023-04-24T12:23:43;15.20;99.90
18898;DHT22;9581;49.484;8.556;2023-04-24T12:26:11;15.10;99.90
18898;DHT22;9581;49.484;8.556;2023-04-24T12:28:38;15.40;99.90
18898;DHT22;9581;49.484;8.556;2023-04-24T12:31:06;15.80;99.90
18898;DHT22;9581;49.484;8.556;2023-04-24T12:33:35;15.00;99.90
18898;DHT22;9581;49.484;8.556;2023-04-24T12:36:02;14.80;99.90
18898;DHT22;9581;49.484;8.556;2023-04-24T12:38:29;14.60;99.90
18898;DHT22;9581;49.484;8.556;2023-04-24T12:41:03;14.50;99.90
18898;DHT22;9581;49.484;8.556;2023-04-24T12:43:30;14.50;99.90
18898;DHT22;9581;49.484;8.556;2023-04-24T12:45:57;14.70;99.90
18898;DHT22;9581;49.484;8.556;2023-04-24T12:48:24;14.70;99.90
18898;DHT22;9581;49.484;8.556;2023-04-24T12:50:52;14.60;99.90
18898;DHT22;9581;49.484;8.556;2023-04-24T12:53:20;14.30;99.90
18898;DHT22;9581;49.484;8.556;2023-04-24T12:55:47;14.30;99.90
18898;DHT22;9581;49.484;8.556;2023-04-24T12:58:18;14.20;99.90
18898;DHT22;9581;49.484;8.556;2023-04-24T13:00:45;14.80;99.90
18898;DHT22;9581;49.484;8.556;2023-04-24T13:03:12;15.70;99.90
18898;DHT22;9581;49.484;8.556;2023-04-24T13:05:39;15.20;99.90
18898;DHT22;9581;49.484;8.556;2023-04-24T13:08:08;15.80;99.90
18898;DHT22;9581;49.484;8.556;2023-04-24T13:10:34;15.80;99.90
18898;DHT22;9581;49.484;8.556;2023-04-24T13:13:01;15.60;99.90
18898;DHT22;9581;49.484;8.556;2023-04-24T13:15:29;15.20;99.90
18898;DHT22;9581;49.484;8.556;2023-04-24T13:17:56;15.50;99.90
18898;DHT22;9581;49.484;8.556;2023-04-24T13:20:22;14.90;99.90
18898;DHT22;9581;49.484;8.556;2023-04-24T13:22:49;14.60;99.90
18898;DHT22;9581;49.484;8.556;2023-04-24T13:25:17;14.60;99.90
18898;DHT22;9581;49.484;8.556;2023-04-24T13:27:45;14.50;99.90
18898;DHT22;9581;49.484;8.556;2023-04-24T13:30:12;14.80;99.90
18898;DHT22;9581;49.484;8.556;2023-04-24T13:32:39;15.30;99.90
18898;DHT22;9581;49.484;8.556;2023-04-24T13:35:07;15.30;99.90
18898;DHT22;9581;49.484;8.556;2023-04-24T13:37:34;16.00;99.90
18898;DHT22;9581;49.484;8.556;2023-04-24T13:40:00;16.60;99.90
18898;DHT22;9581;49.484;8.556;2023-04-24T13:42:29;16.90;99.90
18898;DHT22;9581;49.484;8.556;2023-04-24T13:44:55;16.80;99.90
18898;DHT22;9581;49.484;8.556;2023-04-24T13:47:22;15.50;99.90
18898;DHT22;9581;49.484;8.556;2023-04-24T13:49:49;15.80;99.90
18898;DHT22;9581;49.484;8.556;2023-04-24T13:52:16;15.70;99.90
18898;DHT22;9581;49.484;8.556;2023-04-24T13:54:43;15.60;99.90
18898;DHT22;9581;49.484;8.556;2023-04-24T13:57:09;15.40;99.90
18898;DHT22;9581;49.484;8.556;2023-04-24T13:59:38;15.30;99.90
18898;DHT22;9581;49.484;8.556;2023-04-24T14:02:05;15.00;99.90
18898;DHT22;9581;49.484;8.556;2023-04-24T14:04:32;15.00;99.90
18898;DHT22;9581;49.484;8.556;2023-04-24T14:06:58;15.20;99.90
18898;DHT22;9581;49.484;8.556;2023-04-24T14:09:25;15.00;99.90
18898;DHT22;9581;49.484;8.556;2023-04-24T14:11:52;15.10;99.90
18898;DHT22;9581;49.484;8.556;2023-04-24T14:14:19;15.20;99.90
18898;DHT22;9581;49.484;8.556;2023-04-24T14:16:47;15.00;99.90
18898;DHT22;9581;49.484;8.556;2023-04-24T14:19:14;15.00;99.90
18898;DHT22;9581;49.484;8.556;2023-04-24T14:21:41;14.60;99.90
18898;DHT22;9581;49.484;8.556;2023-04-24T14:24:08;14.30;99.90
18898;DHT22;9581;49.484;8.556;2023-04-24T14:26:35;14.20;99.90
18898;DHT22;9581;49.484;8.556;2023-04-24T14:29:02;14.20;99.90
18898;DHT22;9581;49.484;8.556;2023-04-24T14:31:28;14.20;99.90
18898;DHT22;9581;49.484;8.556;2023-04-24T14:33:57;14.30;99.90
18898;DHT22;9581;49.484;8.556;2023-04-24T14:36:24;14.50;99.90
18898;DHT22;9581;49.484;8.556;2023-04-24T14:38:50;16.20;99.90
18898;DHT22;9581;49.484;8.556;2023-04-24T14:41:17;16.50;99.90
18898;DHT22;9581;49.484;8.556;2023-04-24T14:43:44;19.30;99.90
18898;DHT22;9581;49.484;8.556;2023-04-24T14:46:11;19.90;99.90
18898;DHT22;9581;49.484;8.556;2023-04-24T14:48:37;20.20;99.90
18898;DHT22;9581;49.484;8.556;2023-04-24T14:51:06;18.60;99.90
18898;DHT22;9581;49.484;8.556;2023-04-24T14:53:32;19.10;99.90
18898;DHT22;9581;49.484;8.556;2023-04-24T14:55:59;20.80;99.90
18898;DHT22;9581;49.484;8.556;2023-04-24T14:58:26;20.50;99.30
18898;DHT22;9581;49.484;8.556;2023-04-24T15:00:53;21.20;99.90
18898;DHT22;9581;49.484;8.556;2023-04-24T15:03:20;21.40;98.40
18898;DHT22;9581;49.484;8.556;2023-04-24T15:05:47;16.90;99.90
18898;DHT22;9581;49.484;8.556;2023-04-24T15:08:15;16.80;99.90
18898;DHT22;9581;49.484;8.556;2023-04-24T15:10:42;15.60;99.90
18898;DHT22;9581;49.484;8.556;2023-04-24T15:13:09;15.60;99.90
18898;DHT22;9581;49.484;8.556;2023-04-24T15:15:35;15.50;99.90
18898;DHT22;9581;49.484;8.556;2023-04-24T15:18:03;15.10;99.90
18898;DHT22;9581;49.484;8.556;2023-04-24T15:20:30;14.30;99.90
18898;DHT22;9581;49.484;8.556;2023-04-24T15:22:57;14.00;99.90
18898;DHT22;9581;49.484;8.556;2023-04-24T15:25:26;14.10;99.90
18898;DHT22;9581;49.484;8.556;2023-04-24T15:27:53;14.40;99.90
18898;DHT22;9581;49.484;8.556;2023-04-24T15:30:20;14.30;99.90
18898;DHT22;9581;49.484;8.556;2023-04-24T15:32:47;14.10;99.90
18898;DHT22;9581;49.484;8.556;2023-04-24T15:35:14;14.50;99.90
18898;DHT22;9581;49.484;8.556;2023-04-24T15:37:41;14.50;99.90
18898;DHT22;9581;49.484;8.556;2023-04-24T15:40:09;14.30;99.90
18898;DHT22;9581;49.484;8.556;2023-04-24T15:42:40;15.10;99.90
18898;DHT22;9581;49.484;8.556;2023-04-24T15:45:08;17.80;99.90
18898;DHT22;9581;49.484;8.556;2023-04-24T15:47:35;17.20;99.90
18898;DHT22;9581;49.484;8.556;2023-04-24T15:50:02;16.80;99.90